Latest Weather Observations for Ceduna

IDS60801

Issued at 7:01 pm CST Sunday 20 August 2017 (issued every 30 minutes, with the page automatically refreshed every 10 minutes)

About weather observations | Map of weather stations | Latest weather observations for SA | Other Formats
Station Details ID: 018012 Name: CEDUNA AMO Lat: -32.13 Lon: 133.70 Height: 15.3 m
Data from the previous 72 hours. | See also: Recent months at Ceduna
Date/Time
CST
Temp
°C
App
Temp
°C
Dew
Point
°C
Rel
Hum
%
Delta-T
°C
Wind Press
QNH
hPa
Press
MSL
hPa
Rain since
9am
mm
Dir  Spd
km/h
Gust
km/h
Spd
kts
Gust
kts
20/07:00pm 13.7 12.3 9.7 77 2.1 N 7 11 4 6 1010.8 1010.8 0.2
20/06:30pm 13.8 12.6 9.6 76 2.2 W 6 13 3 7 1010.7 1010.7 0.2
20/06:00pm 14.5 10.9 9.7 73 2.5 WSW 19 24 10 13 1010.7 1010.7 0.2
20/05:30pm 15.4 12.4 10.6 73 2.5 SW 17 24 9 13 1010.6 1010.6 0.2
20/05:00pm 17.4 15.0 8.8 57 4.4 NW 11 17 6 9 1010.2 1010.2 0.2
20/04:30pm 17.2 14.3 9.6 61 4.0 NNW 15 19 8 10 1009.8 1009.8 0.2
20/04:00pm 15.8 11.8 9.2 65 3.4 WNW 20 26 11 14 1010.3 1010.3 0.2
20/03:30pm 16.8 12.3 10.0 64 3.6 W 24 33 13 18 1009.9 1009.9 0.0
20/03:19pm 18.8 12.1 3.4 36 7.2 NNW 28 43 15 23 1009.9 1009.9 0.0
20/03:00pm 18.7 9.4 0.3 29 8.1 N 39 52 21 28 1009.2 1009.2 0.0
20/02:30pm 18.9 10.0 1.0 30 8.0 N 37 57 20 31 1009.3 1009.3 0.0
20/02:02pm 18.2 8.2 0.8 31 7.7 N 43 61 23 33 1009.4 1009.4 0.0
20/02:00pm 18.3 8.0 0.4 30 7.9 N 44 61 24 33 1009.3 1009.3 0.0
20/01:30pm 18.2 9.0 1.3 32 7.6 N 39 59 21 32 1009.9 1009.9 0.0
20/01:00pm 16.3 6.1 3.4 42 5.9 N 46 70 25 38 1010.1 1010.1 0.0
20/12:30pm 16.8 7.0 2.4 38 6.5 NNE 43 61 23 33 1010.9 1010.9 0.0
20/12:00pm 15.6 5.8 2.4 41 5.9 NNE 43 63 23 34 1011.5 1011.5 0.0
20/11:30am 15.9 7.6 4.3 46 5.4 NNE 37 56 20 30 1012.0 1012.0 0.0
20/11:00am 13.9 7.2 3.7 50 4.6 NNE 28 48 15 26 1012.8 1012.8 0.0
20/10:36am 14.2 7.5 3.9 50 4.7 NNE 28 46 15 25 1013.2 1013.2 0.0
20/10:30am 14.2 6.6 3.1 47 5.0 NNE 32 46 17 25 1013.4 1013.4 0.0
20/10:12am 14.3 6.7 3.7 49 4.8 NNE 33 52 18 28 1013.7 1013.7 0.0
20/10:00am 14.1 5.2 3.0 47 5.0 NNE 39 54 21 29 1012.9 1012.9 0.0
20/09:30am 14.0 5.5 2.9 47 4.9 NE 37 50 20 27 1013.6 1013.6 0.0
20/09:00am 13.5 5.6 4.1 53 4.3 NE 35 44 19 24 1013.4 1013.4 1.2
20/08:30am 12.9 4.2 4.3 56 3.9 NE 39 54 21 29 1013.5 1013.5 1.2
20/08:12am 12.8 3.6 3.7 54 4.1 NE 41 61 22 33 1013.5 1013.5 1.2
20/08:00am 12.3 4.0 4.0 57 3.7 NE 37 52 20 28 1013.9 1013.9 1.2
20/07:55am 12.6 5.1 4.3 57 3.8 NE 33 52 18 28 1014.3 1014.3 1.2
20/07:30am 11.2 6.5 5.1 66 2.8 ENE 19 32 10 17 1016.0 1016.0 1.0
20/07:00am 14.3 8.6 -0.5 36 6.1 WNW 19 33 10 18 1016.8 1016.8 0.0
20/06:54am 14.6 7.5 -1.1 34 6.4 NNE 26 43 14 23 1015.6 1015.6 0.0
20/06:30am 14.4 5.7 -0.8 35 6.3 NE 35 56 19 30 1013.5 1013.5 0.0
20/06:10am 14.5 4.6 -0.8 35 6.3 NE 41 59 22 32 1013.3 1013.3 0.0
20/06:00am 14.5 4.0 -0.8 35 6.3 NE 44 61 24 33 1012.9 1012.9 0.0
20/05:30am 14.0 3.8 -0.4 37 6.0 NE 43 52 23 28 1013.2 1013.2 0.0
20/05:00am 13.3 3.9 -0.3 39 5.6 NE 39 50 21 27 1014.3 1014.3 0.0
20/04:30am 13.3 4.6 -0.3 39 5.6 NE 35 44 19 24 1014.9 1014.9 0.0
20/04:00am 13.2 5.1 -0.4 39 5.6 NE 32 41 17 22 1016.1 1016.1 0.0
20/03:30am 13.7 5.6 -0.3 38 5.8 NE 32 41 17 22 1016.6 1016.6 0.0
20/03:00am 13.7 6.5 0.4 40 5.6 NE 28 39 15 21 1017.4 1017.4 0.0
20/02:30am 13.6 6.0 0.6 41 5.5 NE 30 37 16 20 1017.6 1017.6 0.0
20/02:00am 14.0 5.9 1.0 41 5.6 NE 33 41 18 22 1017.3 1017.3 0.0
20/01:30am 14.1 6.6 1.1 41 5.6 NE 30 37 16 20 1017.9 1017.9 0.0
20/01:00am 13.6 7.3 1.6 44 5.2 NE 24 32 13 17 1018.8 1018.8 0.0
20/12:30am 13.7 6.7 1.7 44 5.2 NE 28 35 15 19 1019.0 1019.0 0.0
20/12:00am 12.9 7.0 1.9 47 4.7 ENE 22 28 12 15 1019.8 1019.8 0.0
 
Date/Time
CST
Temp
°C
App
Temp
°C
Dew
Point
°C
Rel
Hum
%
Delta-T
°C
Wind Press
QNH
hPa
Press
MSL
hPa
Rain since
9am
mm
Dir  Spd
km/h
Gust
km/h
Spd
kts
Gust
kts
19/11:30pm 11.8 6.4 2.3 52 4.1 ENE 20 24 11 13 1020.3 1020.3 0.0
19/11:00pm 11.9 7.0 1.8 50 4.3 ENE 17 20 9 11 1021.3 1021.3 0.0
19/10:30pm 12.8 7.5 1.8 47 4.7 E 19 22 10 12 1021.5 1021.5 0.0
19/10:00pm 14.0 7.8 2.0 44 5.2 ENE 24 30 13 16 1021.5 1021.5 0.0
19/09:30pm 14.2 8.4 2.1 44 5.3 E 22 28 12 15 1022.0 1022.0 0.0
19/09:00pm 14.4 8.9 1.7 42 5.5 E 20 28 11 15 1022.4 1022.4 0.0
19/08:30pm 14.2 9.2 1.5 42 5.5 E 17 20 9 11 1022.7 1022.7 0.0
19/08:00pm 14.8 9.8 1.3 40 5.9 ENE 17 22 9 12 1022.8 1022.8 0.0
19/07:30pm 15.0 10.0 1.5 40 5.9 E 17 19 9 10 1022.7 1022.7 0.0
19/07:00pm 15.7 10.2 0.7 36 6.5 E 19 20 10 11 1022.3 1022.3 0.0
19/06:30pm 16.3 10.8 0.8 35 6.7 E 19 22 10 12 1022.4 1022.4 0.0
19/06:00pm 16.9 12.0 1.8 36 6.7 E 17 20 9 11 1022.6 1022.6 0.0
19/05:30pm 17.9 12.6 1.8 34 7.2 ENE 19 22 10 12 1022.4 1022.4 0.0
19/05:00pm 18.7 12.8 1.7 32 7.7 ENE 22 28 12 15 1022.2 1022.2 0.0
19/04:30pm 19.5 13.2 1.5 30 8.1 ENE 24 30 13 16 1022.3 1022.3 0.0
19/04:00pm 19.6 13.7 2.0 31 8.1 NE 22 30 12 16 1022.8 1022.8 0.0
19/03:30pm 19.7 13.4 1.7 30 8.2 NE 24 30 13 16 1023.1 1023.1 0.0
19/03:00pm 19.5 12.8 1.5 30 8.1 NE 26 35 14 19 1023.5 1023.5 0.0
19/02:30pm 19.6 13.5 2.5 32 7.9 ENE 24 35 13 19 1023.9 1023.9 0.0
19/02:00pm 20.4 14.4 3.2 32 8.1 NE 24 35 13 19 1024.3 1024.3 0.0
19/01:30pm 19.4 13.7 5.1 39 6.9 ENE 24 30 13 16 1024.9 1024.9 0.0
19/01:00pm 18.3 13.0 5.2 42 6.3 ENE 22 32 12 17 1025.6 1025.6 0.0
19/12:30pm 18.3 13.6 6.2 45 5.9 ENE 20 28 11 15 1026.5 1026.5 0.0
19/12:00pm 17.4 12.6 5.7 46 5.6 NE 20 28 11 15 1027.4 1027.4 0.0
19/11:30am 17.1 12.1 6.3 49 5.3 NE 22 28 12 15 1028.0 1028.0 0.0
19/11:00am 16.8 12.2 8.0 56 4.5 NE 22 28 12 15 1028.5 1028.5 0.0
19/10:30am 15.0 10.0 6.6 57 4.1 NE 22 28 12 15 1029.1 1029.1 0.0
19/10:00am 13.2 8.4 7.4 68 2.8 ENE 22 26 12 14 1029.5 1029.5 0.0
19/09:30am 11.2 5.9 6.7 74 2.1 ENE 24 28 13 15 1029.8 1029.8 0.0
19/09:00am 9.5 5.5 6.8 83 1.3 ENE 17 24 9 13 1029.9 1029.9 0.0
19/08:30am 7.5 4.2 6.3 92 0.5 ENE 13 17 7 9 1029.8 1029.8 0.0
19/08:00am 5.2 1.5 4.6 96 0.3 ENE 13 15 7 8 1029.5 1029.5 0.0
19/07:30am 3.1 -0.9 2.7 97 0.2 ENE 13 15 7 8 1029.4 1029.4 0.0
19/07:00am 2.6 -1.9 2.2 97 0.2 NE 15 17 8 9 1029.3 1029.3 0.0
19/06:30am 2.5 -2.0 2.1 97 0.2 ENE 15 17 8 9 1028.8 1028.8 0.0
19/06:00am 2.4 -2.1 2.0 97 0.2 ENE 15 15 8 8 1028.4 1028.4 0.0
19/05:30am 2.5 -2.0 2.2 98 0.1 ENE 15 15 8 8 1028.1 1028.1 0.0
19/05:00am 1.8 -2.1 1.4 97 0.2 ENE 11 13 6 7 1028.1 1028.1 0.0
19/04:30am 2.7 -1.4 2.3 97 0.2 ENE 13 15 7 8 1027.8 1027.8 0.0
19/04:00am 2.8 -1.3 2.5 98 0.1 ENE 13 15 7 8 1027.7 1027.7 0.0
19/03:30am 2.9 -1.5 2.5 97 0.2 ENE 15 15 8 8 1027.8 1027.8 0.0
19/03:00am 2.9 -0.8 2.3 96 0.2 ENE 11 13 6 7 1028.1 1028.1 0.0
19/02:30am 3.9 0.0 3.3 96 0.2 ENE 13 17 7 9 1028.0 1028.0 0.0
19/02:00am 3.5 -0.1 3.1 97 0.2 ENE 11 13 6 7 1028.2 1028.2 0.0
19/01:30am 3.4 -0.2 3.0 97 0.2 ENE 11 13 6 7 1028.2 1028.2 0.0
19/01:00am 3.5 0.3 2.8 95 0.3 ENE 9 13 5 7 1028.2 1028.2 0.0
19/12:30am 4.1 0.2 3.5 96 0.2 ENE 13 15 7 8 1028.4 1028.4 0.0
19/12:00am 2.9 -1.3 1.9 93 0.4 ENE 13 13 7 7 1028.6 1028.6 0.0
 
Date/Time
CST
Temp
°C
App
Temp
°C
Dew
Point
°C
Rel
Hum
%
Delta-T
°C
Wind Press
QNH
hPa
Press
MSL
hPa
Rain since
9am
mm
Dir  Spd
km/h
Gust
km/h
Spd
kts
Gust
kts
18/11:30pm 4.1 0.5 3.2 94 0.4 ENE 11 13 6 7 1028.7 1028.7 0.0
18/11:00pm 4.9 1.9 4.2 95 0.3 ESE 9 11 5 6 1028.9 1028.9 0.0
18/10:30pm 5.1 1.8 4.4 95 0.3 ESE 11 13 6 7 1029.0 1029.0 0.0
18/10:00pm 5.6 2.4 4.9 95 0.3 ESE 11 11 6 6 1029.0 1029.0 0.0
18/09:30pm 5.4 2.1 4.5 94 0.4 SE 11 11 6 6 1028.8 1028.8 0.0
18/09:00pm 5.4 2.1 4.4 93 0.4 SE 11 13 6 7 1028.7 1028.7 0.0
18/08:30pm 5.6 2.6 4.1 90 0.6 SE 9 11 5 6 1028.5 1028.5 0.0
18/08:00pm 6.5 4.0 5.0 90 0.7 SE 7 9 4 5 1028.3 1028.3 0.0
18/07:30pm 7.9 5.7 6.0 88 0.9 SE 7 9 4 5 1028.1 1028.1 0.0
18/07:00pm 9.0 6.9 5.9 81 1.4 SE 6 7 3 4 1027.8 1027.8 0.0
18/06:30pm 10.4 7.9 6.4 76 1.9 SSE 9 11 5 6 1027.7 1027.7 0.0
18/06:00pm 12.7 9.5 6.7 67 2.9 SSE 13 15 7 8 1027.5 1027.5 0.0
18/05:30pm 14.1 9.7 6.5 60 3.6 SSE 19 24 10 13 1027.3 1027.3 0.0
18/05:00pm 14.9 11.1 7.5 61 3.7 S 17 22 9 12 1027.1 1027.1 0.0
18/04:30pm 15.4 11.6 7.4 59 3.9 SSE 17 24 9 13 1027.0 1027.0 0.0
18/04:00pm 15.5 12.0 7.3 58 4.1 S 15 22 8 12 1026.8 1026.8 0.0
18/03:30pm 15.7 11.9 7.7 59 4.0 SW 17 22 9 12 1026.8 1026.8 0.0
18/03:00pm 16.0 12.6 7.5 57 4.2 SW 15 20 8 11 1026.9 1026.9 0.0
18/02:30pm 15.9 12.1 7.4 57 4.2 SW 17 26 9 14 1026.9 1026.9 0.0
18/02:00pm 16.0 12.0 6.7 54 4.6 SW 17 22 9 12 1026.9 1026.9 0.0
18/01:30pm 15.6 11.5 6.3 54 4.5 SW 17 24 9 13 1027.0 1027.0 0.0
18/01:00pm 15.9 12.3 6.6 54 4.5 SW 15 20 8 11 1027.3 1027.3 0.0
18/12:30pm 16.0 11.7 7.2 56 4.3 WSW 19 24 10 13 1027.6 1027.6 0.0
18/12:00pm 15.5 10.9 6.5 55 4.4 SW 20 24 11 13 1027.8 1027.8 0.0
18/11:30am 15.8 11.3 6.3 53 4.6 SW 19 24 10 13 1027.8 1027.8 0.0
18/11:00am 15.7 11.0 5.9 52 4.7 SW 20 26 11 14 1027.8 1027.8 0.0
18/10:30am 15.3 10.7 6.3 55 4.3 SW 20 24 11 13 1027.8 1027.8 0.0
18/10:00am 15.3 10.8 7.1 58 4.0 SW 20 26 11 14 1027.6 1027.6 0.0
18/09:30am 15.0 10.7 6.8 58 4.0 SW 19 24 10 13 1027.4 1027.4 0.0
18/09:00am 13.9 9.6 7.2 64 3.2 SW 19 24 10 13 1026.9 1026.9 0.0
18/08:30am 13.7 9.8 7.0 64 3.2 SW 17 22 9 12 1026.4 1026.4 0.0
18/08:00am 12.9 8.9 6.7 66 3.0 SW 17 24 9 13 1025.9 1025.9 0.0
18/07:30am 11.8 7.7 6.3 69 2.6 SW 17 24 9 13 1025.5 1025.5 0.0
18/07:00am 11.8 8.2 6.9 72 2.3 WSW 15 19 8 10 1025.1 1025.1 0.0
18/06:30am 11.4 8.2 6.9 74 2.1 WSW 13 17 7 9 1024.8 1024.8 0.0
18/06:00am 11.1 7.5 6.6 74 2.1 SW 15 19 8 10 1024.4 1024.4 0.0
18/05:30am 11.4 7.3 6.3 71 2.4 SW 17 22 9 12 1024.1 1024.1 0.0
18/05:00am 11.4 6.9 5.9 69 2.6 SW 19 22 10 12 1023.7 1023.7 0.0
18/04:30am 11.7 7.1 6.4 70 2.5 SW 20 28 11 15 1023.3 1023.3 0.0
18/04:00am 12.4 7.2 5.3 62 3.3 SW 22 30 12 16 1023.0 1023.0 0.0
18/03:30am 12.2 6.9 5.1 62 3.3 SW 22 33 12 18 1022.9 1022.9 0.0
18/03:00am 12.5 7.2 7.0 69 2.6 SW 24 30 13 16 1022.8 1022.8 0.0
18/02:30am 13.1 8.8 8.0 71 2.5 SW 20 28 11 15 1022.6 1022.6 0.0
18/02:00am 12.8 7.7 5.9 63 3.2 SW 22 28 12 15 1022.6 1022.6 0.0
18/01:30am 13.3 7.4 5.7 60 3.6 WSW 26 35 14 19 1022.7 1022.7 0.0
18/01:00am 13.4 8.0 6.3 62 3.4 WSW 24 33 13 18 1022.7 1022.7 0.0
18/12:30am 13.5 8.0 6.1 61 3.5 WSW 24 30 13 16 1022.5 1022.5 0.0
18/12:00am 12.8 7.6 5.5 61 3.4 WSW 22 30 12 16 1022.4 1022.4 0.0
 
Date/Time
CST
Temp
°C
App
Temp
°C
Dew
Point
°C
Rel
Hum
%
Delta-T
°C
Wind Press
QNH
hPa
Press
MSL
hPa
Rain since
9am
mm
Dir  Spd
km/h
Gust
km/h
Spd
kts
Gust
kts
17/11:30pm 13.2 7.2 5.1 58 3.7 WSW 26 37 14 20 1022.2 1022.2 0.0
17/11:00pm 13.3 6.6 5.5 59 3.7 WSW 30 39 16 21 1022.0 1022.0 0.0
17/10:30pm 13.3 7.2 6.4 63 3.3 WSW 28 39 15 21 1021.8 1021.8 0.0
17/10:00pm 13.7 7.9 6.3 61 3.5 WSW 26 39 14 21 1021.7 1021.7 0.0
17/09:30pm 13.7 6.6 5.3 57 3.9 WSW 32 41 17 22 1021.5 1021.5 0.0
17/09:00pm 13.7 6.4 4.6 54 4.2 WSW 32 48 17 26 1021.1 1021.1 0.0
17/08:45pm 13.5 6.9 4.4 54 4.2 WSW 28 46 15 25 1021.1 1021.1 0.0
17/08:30pm 13.6 7.0 6.0 60 3.6 WSW 30 41 16 22 1020.7 1020.7 0.0
17/08:00pm 13.3 8.0 6.6 64 3.2 W 24 32 13 17 1020.3 1020.3 0.0
17/07:30pm 13.3 8.1 7.3 67 2.9 W 24 32 13 17 1019.9 1019.9 0.0

Other Formats:

Comma delimited format used in spreadsheet applications
http://www.bom.gov.au/fwo/IDS60801/IDS60801.94653.axf

JavaScript Object Notation format (JSON) in row-major order
http://www.bom.gov.au/fwo/IDS60801/IDS60801.94653.json